sensor_id;sensor_type;location;lat;lon;timestamp;pressure;altitude;pressure_sealevel;temperature;humidity
75855;BME280;64502;59.976;30.316;2023-02-13T00:00:01;101043.66;;;1.50;85.93
75855;BME280;64502;59.976;30.316;2023-02-13T00:02:26;101054.84;;;1.55;86.23
75855;BME280;64502;59.976;30.316;2023-02-13T00:04:52;101039.19;;;1.58;86.00
75855;BME280;64502;59.976;30.316;2023-02-13T00:07:17;101044.38;;;1.58;85.73
75855;BME280;64502;59.976;30.316;2023-02-13T00:09:42;101038.31;;;1.59;85.73
75855;BME280;64502;59.976;30.316;2023-02-13T00:12:08;101042.66;;;1.59;85.02
75855;BME280;64502;59.976;30.316;2023-02-13T00:14:37;101039.16;;;1.60;84.90
75855;BME280;64502;59.976;30.316;2023-02-13T00:17:04;101046.06;;;1.61;85.35
75855;BME280;64502;59.976;30.316;2023-02-13T00:19:30;101044.31;;;1.63;85.28
75855;BME280;64502;59.976;30.316;2023-02-13T00:21:55;101039.97;;;1.63;85.19
75855;BME280;64502;59.976;30.316;2023-02-13T00:24:21;101033.06;;;1.64;84.74
75855;BME280;64502;59.976;30.316;2023-02-13T00:26:46;101033.06;;;1.62;85.27
75855;BME280;64502;59.976;30.316;2023-02-13T00:29:12;101050.38;;;1.63;85.13
75855;BME280;64502;59.976;30.316;2023-02-13T00:31:37;101027.88;;;1.61;84.80
75855;BME280;64502;59.976;30.316;2023-02-13T00:34:03;101035.66;;;1.62;84.19
75855;BME280;64502;59.976;30.316;2023-02-13T00:36:29;101040.91;;;1.59;84.74
75855;BME280;64502;59.976;30.316;2023-02-13T00:38:54;101033.13;;;1.58;84.73
75855;BME280;64502;59.976;30.316;2023-02-13T00:41:20;101032.28;;;1.57;84.48
75855;BME280;64502;59.976;30.316;2023-02-13T00:43:46;101040.13;;;1.54;84.63
75855;BME280;64502;59.976;30.316;2023-02-13T00:46:12;101037.53;;;1.55;84.84
75855;BME280;64502;59.976;30.316;2023-02-13T00:48:38;101023.63;;;1.57;84.56
75855;BME280;64502;59.976;30.316;2023-02-13T00:51:04;101014.91;;;1.58;84.03
75855;BME280;64502;59.976;30.316;2023-02-13T00:53:30;101027.91;;;1.59;83.68
75855;BME280;64502;59.976;30.316;2023-02-13T00:55:55;101019.22;;;1.60;84.47
75855;BME280;64502;59.976;30.316;2023-02-13T00:58:21;101014.84;;;1.62;83.83
75855;BME280;64502;59.976;30.316;2023-02-13T01:00:47;101022.66;;;1.61;83.83
75855;BME280;64502;59.976;30.316;2023-02-13T01:03:14;101004.50;;;1.59;84.45
75855;BME280;64502;59.976;30.316;2023-02-13T01:05:39;101001.91;;;1.59;84.52
75855;BME280;64502;59.976;30.316;2023-02-13T01:08:05;101019.25;;;1.59;83.88
75855;BME280;64502;59.976;30.316;2023-02-13T01:10:31;101012.25;;;1.62;84.89
75855;BME280;64502;59.976;30.316;2023-02-13T01:12:57;101000.22;;;1.57;84.30
75855;BME280;64502;59.976;30.316;2023-02-13T01:15:22;101004.56;;;1.54;84.46
75855;BME280;64502;59.976;30.316;2023-02-13T01:17:48;100998.53;;;1.52;83.93
75855;BME280;64502;59.976;30.316;2023-02-13T01:20:14;101002.94;;;1.50;84.55
75855;BME280;64502;59.976;30.316;2023-02-13T01:22:40;100999.53;;;1.45;84.52
75855;BME280;64502;59.976;30.316;2023-02-13T01:25:08;101002.13;;;1.45;85.07
75855;BME280;64502;59.976;30.316;2023-02-13T01:27:33;101015.16;;;1.44;84.28
75855;BME280;64502;59.976;30.316;2023-02-13T01:29:59;101002.19;;;1.42;84.37
75855;BME280;64502;59.976;30.316;2023-02-13T01:32:25;100996.16;;;1.40;84.38
75855;BME280;64502;59.976;30.316;2023-02-13T01:34:50;101000.50;;;1.40;84.27
75855;BME280;64502;59.976;30.316;2023-02-13T01:37:16;100996.09;;;1.42;84.92
75855;BME280;64502;59.976;30.316;2023-02-13T01:39:41;101002.25;;;1.38;84.33
75855;BME280;64502;59.976;30.316;2023-02-13T01:42:24;100991.00;;;1.37;84.03
75855;BME280;64502;59.976;30.316;2023-02-13T01:44:51;100993.66;;;1.32;84.98
75855;BME280;64502;59.976;30.316;2023-02-13T01:47:40;100988.47;;;1.32;84.72
75855;BME280;64502;59.976;30.316;2023-02-13T01:50:10;100983.31;;;1.29;85.04
75855;BME280;64502;59.976;30.316;2023-02-13T01:52:40;100983.38;;;1.26;84.47
75855;BME280;64502;59.976;30.316;2023-02-13T01:55:08;100992.06;;;1.24;84.68
75855;BME280;64502;59.976;30.316;2023-02-13T01:57:34;100983.44;;;1.22;85.00
75855;BME280;64502;59.976;30.316;2023-02-13T02:00:11;100987.78;;;1.21;84.86
75855;BME280;64502;59.976;30.316;2023-02-13T02:02:40;101003.38;;;1.20;84.60
75855;BME280;64502;59.976;30.316;2023-02-13T02:05:09;100987.81;;;1.18;84.66
75855;BME280;64502;59.976;30.316;2023-02-13T02:07:37;100980.88;;;1.17;85.07
75855;BME280;64502;59.976;30.316;2023-02-13T02:10:07;100976.53;;;1.19;84.95
75855;BME280;64502;59.976;30.316;2023-02-13T02:12:39;100969.63;;;1.17;84.55
75855;BME280;64502;59.976;30.316;2023-02-13T02:15:07;100978.34;;;1.14;84.56
75855;BME280;64502;59.976;30.316;2023-02-13T02:17:33;100974.88;;;1.15;84.56
75855;BME280;64502;59.976;30.316;2023-02-13T02:37:17;100970.84;;;0.96;84.96
75855;BME280;64502;59.976;30.316;2023-02-13T02:40:00;100979.50;;;0.95;85.15
75855;BME280;64502;59.976;30.316;2023-02-13T02:48:04;100983.00;;;0.92;85.41
75855;BME280;64502;59.976;30.316;2023-02-13T02:51:34;100979.50;;;0.95;84.85
75855;BME280;64502;59.976;30.316;2023-02-13T02:57:14;100985.53;;;0.95;85.24
75855;BME280;64502;59.976;30.316;2023-02-13T02:59:43;100982.09;;;0.95;85.35
75855;BME280;64502;59.976;30.316;2023-02-13T03:02:29;100974.28;;;0.96;85.28
75855;BME280;64502;59.976;30.316;2023-02-13T03:05:21;100976.00;;;0.97;85.49
75855;BME280;64502;59.976;30.316;2023-02-13T03:08:07;100959.56;;;0.97;85.30
75855;BME280;64502;59.976;30.316;2023-02-13T03:10:35;100965.66;;;0.96;85.27
75855;BME280;64502;59.976;30.316;2023-02-13T03:13:43;100959.66;;;0.89;85.34
75855;BME280;64502;59.976;30.316;2023-02-13T03:16:16;100960.66;;;0.82;85.53
75855;BME280;64502;59.976;30.316;2023-02-13T03:19:01;100948.56;;;0.76;85.42
75855;BME280;64502;59.976;30.316;2023-02-13T03:21:50;100943.41;;;0.75;85.53
75855;BME280;64502;59.976;30.316;2023-02-13T03:29:48;100927.97;;;0.65;86.08
75855;BME280;64502;59.976;30.316;2023-02-13T03:38:31;100933.31;;;0.55;86.19
75855;BME280;64502;59.976;30.316;2023-02-13T03:41:06;100916.94;;;0.50;86.40
75855;BME280;64502;59.976;30.316;2023-02-13T03:46:23;100917.00;;;0.43;86.32
75855;BME280;64502;59.976;30.316;2023-02-13T03:48:50;100930.06;;;0.37;86.74
75855;BME280;64502;59.976;30.316;2023-02-13T03:52:16;100933.56;;;0.36;86.66
75855;BME280;64502;59.976;30.316;2023-02-13T03:54:51;100954.31;;;0.36;86.47
75855;BME280;64502;59.976;30.316;2023-02-13T03:57:39;100935.28;;;0.36;86.86
75855;BME280;64502;59.976;30.316;2023-02-13T04:00:26;100943.00;;;0.42;86.85
75855;BME280;64502;59.976;30.316;2023-02-13T04:03:12;100929.13;;;0.44;86.46
75855;BME280;64502;59.976;30.316;2023-02-13T04:05:43;100930.81;;;0.46;86.77
75855;BME280;64502;59.976;30.316;2023-02-13T04:08:10;100921.25;;;0.51;86.58
75855;BME280;64502;59.976;30.316;2023-02-13T04:10:44;100918.63;;;0.52;86.11
75855;BME280;64502;59.976;30.316;2023-02-13T04:13:32;100915.16;;;0.55;86.20
75855;BME280;64502;59.976;30.316;2023-02-13T04:16:14;100904.72;;;0.56;86.74
75855;BME280;64502;59.976;30.316;2023-02-13T04:18:42;100904.75;;;0.55;86.48
75855;BME280;64502;59.976;30.316;2023-02-13T04:21:08;100901.28;;;0.56;85.88
75855;BME280;64502;59.976;30.316;2023-02-13T04:23:34;100907.34;;;0.55;85.89
75855;BME280;64502;59.976;30.316;2023-02-13T04:26:05;100901.28;;;0.56;86.26
75855;BME280;64502;59.976;30.316;2023-02-13T04:28:32;100887.44;;;0.55;86.10
75855;BME280;64502;59.976;30.316;2023-02-13T04:30:57;100892.59;;;0.57;86.20
75855;BME280;64502;59.976;30.316;2023-02-13T04:33:23;100900.38;;;0.57;86.33
75855;BME280;64502;59.976;30.316;2023-02-13T04:35:48;100905.56;;;0.57;86.20
75855;BME280;64502;59.976;30.316;2023-02-13T04:38:14;100895.25;;;0.54;86.55
75855;BME280;64502;59.976;30.316;2023-02-13T04:40:39;100892.59;;;0.58;86.51
75855;BME280;64502;59.976;30.316;2023-02-13T04:43:05;100886.53;;;0.58;86.81
75855;BME280;64502;59.976;30.316;2023-02-13T04:45:30;100909.91;;;0.58;86.45
75855;BME280;64502;59.976;30.316;2023-02-13T04:47:57;100912.50;;;0.56;86.58
75855;BME280;64502;59.976;30.316;2023-02-13T04:50:23;100895.19;;;0.58;86.71
75855;BME280;64502;59.976;30.316;2023-02-13T04:52:52;100914.25;;;0.57;86.78
75855;BME280;64502;59.976;30.316;2023-02-13T04:55:18;100916.81;;;0.59;86.63
75855;BME280;64502;59.976;30.316;2023-02-13T04:57:44;100909.88;;;0.59;86.53
75855;BME280;64502;59.976;30.316;2023-02-13T05:00:10;100900.28;;;0.66;86.63
75855;BME280;64502;59.976;30.316;2023-02-13T05:02:36;100909.75;;;0.67;86.76
75855;BME280;64502;59.976;30.316;2023-02-13T05:05:01;100908.03;;;0.68;86.37
75855;BME280;64502;59.976;30.316;2023-02-13T05:07:27;100905.38;;;0.71;86.33
75855;BME280;64502;59.976;30.316;2023-02-13T05:09:52;100914.06;;;0.68;86.54
75855;BME280;64502;59.976;30.316;2023-02-13T05:12:18;100896.72;;;0.70;86.52
75855;BME280;64502;59.976;30.316;2023-02-13T05:14:44;100899.28;;;0.73;86.08
75855;BME280;64502;59.976;30.316;2023-02-13T05:17:09;100893.22;;;0.73;86.39
75855;BME280;64502;59.976;30.316;2023-02-13T05:19:34;100888.09;;;0.71;86.10
75855;BME280;64502;59.976;30.316;2023-02-13T05:22:00;100889.78;;;0.71;85.78
75855;BME280;64502;59.976;30.316;2023-02-13T05:24:44;100888.97;;;0.69;85.90
75855;BME280;64502;59.976;30.316;2023-02-13T05:27:09;100888.16;;;0.65;86.07
75855;BME280;64502;59.976;30.316;2023-02-13T05:29:35;100885.59;;;0.63;86.47
75855;BME280;64502;59.976;30.316;2023-02-13T05:32:00;100857.09;;;0.59;86.61
75855;BME280;64502;59.976;30.316;2023-02-13T05:34:27;100862.28;;;0.59;85.94
75855;BME280;64502;59.976;30.316;2023-02-13T05:36:52;100857.97;;;0.58;86.23
75855;BME280;64502;59.976;30.316;2023-02-13T05:39:18;100877.84;;;0.59;86.22
75855;BME280;64502;59.976;30.316;2023-02-13T05:41:45;100870.97;;;0.58;86.06
75855;BME280;64502;59.976;30.316;2023-02-13T05:44:11;100887.34;;;0.61;86.76
75855;BME280;64502;59.976;30.316;2023-02-13T05:46:38;100875.22;;;0.62;86.37
75855;BME280;64502;59.976;30.316;2023-02-13T05:49:04;100870.91;;;0.61;86.29
75855;BME280;64502;59.976;30.316;2023-02-13T05:51:30;100873.56;;;0.56;85.92
75855;BME280;64502;59.976;30.316;2023-02-13T05:53:55;100878.75;;;0.58;86.25
75855;BME280;64502;59.976;30.316;2023-02-13T05:56:21;100887.44;;;0.55;86.62
75855;BME280;64502;59.976;30.316;2023-02-13T05:58:46;100878.81;;;0.55;86.48
75855;BME280;64502;59.976;30.316;2023-02-13T06:01:12;100884.91;;;0.52;86.42
75855;BME280;64502;59.976;30.316;2023-02-13T06:03:37;100878.88;;;0.49;86.30
75855;BME280;64502;59.976;30.316;2023-02-13T06:06:04;100874.50;;;0.51;86.48
75855;BME280;64502;59.976;30.316;2023-02-13T06:08:30;100878.88;;;0.49;86.67
75855;BME280;64502;59.976;30.316;2023-02-13T06:10:55;100870.16;;;0.53;86.33
75855;BME280;64502;59.976;30.316;2023-02-13T06:13:21;100864.94;;;0.54;86.08
75855;BME280;64502;59.976;30.316;2023-02-13T06:15:47;100859.72;;;0.57;86.70
75855;BME280;64502;59.976;30.316;2023-02-13T06:18:12;100865.72;;;0.61;86.41
75855;BME280;64502;59.976;30.316;2023-02-13T06:20:38;100863.97;;;0.61;85.70
75855;BME280;64502;59.976;30.316;2023-02-13T06:23:03;100861.38;;;0.63;86.36
75855;BME280;64502;59.976;30.316;2023-02-13T06:25:29;100863.03;;;0.67;85.76
75855;BME280;64502;59.976;30.316;2023-02-13T06:27:54;100863.88;;;0.69;86.25
75855;BME280;64502;59.976;30.316;2023-02-13T06:30:20;100856.00;;;0.74;85.79
75855;BME280;64502;59.976;30.316;2023-02-13T06:32:46;100862.06;;;0.74;85.96
75855;BME280;64502;59.976;30.316;2023-02-13T06:35:12;100858.50;;;0.80;85.71
75855;BME280;64502;59.976;30.316;2023-02-13T06:37:38;100848.97;;;0.82;84.91
75855;BME280;64502;59.976;30.316;2023-02-13T06:40:05;100838.53;;;0.85;85.23
75855;BME280;64502;59.976;30.316;2023-02-13T06:42:31;100847.13;;;0.87;85.40
75855;BME280;64502;59.976;30.316;2023-02-13T06:44:56;100833.16;;;0.93;85.21
75855;BME280;64502;59.976;30.316;2023-02-13T06:47:22;100832.25;;;0.97;85.06
75855;BME280;64502;59.976;30.316;2023-02-13T06:49:47;100830.44;;;1.00;85.28
75855;BME280;64502;59.976;30.316;2023-02-13T06:52:13;100820.91;;;1.01;84.74
75855;BME280;64502;59.976;30.316;2023-02-13T06:54:38;100813.09;;;1.02;84.84
75855;BME280;64502;59.976;30.316;2023-02-13T06:57:03;100811.34;;;1.04;84.33
75855;BME280;64502;59.976;30.316;2023-02-13T06:59:29;100811.34;;;1.04;84.20
75855;BME280;64502;59.976;30.316;2023-02-13T07:01:54;100815.66;;;1.05;84.41
75855;BME280;64502;59.976;30.316;2023-02-13T07:04:20;100811.28;;;1.06;84.35
75855;BME280;64502;59.976;30.316;2023-02-13T07:06:45;100809.53;;;1.08;84.65
75855;BME280;64502;59.976;30.316;2023-02-13T07:09:11;100804.34;;;1.08;83.71
75855;BME280;64502;59.976;30.316;2023-02-13T07:11:38;100800.00;;;1.08;84.06
75855;BME280;64502;59.976;30.316;2023-02-13T07:14:05;100812.06;;;1.11;84.36
75855;BME280;64502;59.976;30.316;2023-02-13T07:16:31;100810.34;;;1.11;84.05
75855;BME280;64502;59.976;30.316;2023-02-13T07:18:56;100805.13;;;1.13;83.15
75855;BME280;64502;59.976;30.316;2023-02-13T07:21:22;100792.06;;;1.16;83.65
75855;BME280;64502;59.976;30.316;2023-02-13T07:23:47;100802.44;;;1.18;83.03
75855;BME280;64502;59.976;30.316;2023-02-13T07:26:12;100803.38;;;1.14;83.23
75855;BME280;64502;59.976;30.316;2023-02-13T07:28:38;100805.00;;;1.21;83.37
75855;BME280;64502;59.976;30.316;2023-02-13T07:31:04;100806.63;;;1.25;83.50
75855;BME280;64502;59.976;30.316;2023-02-13T07:33:31;100782.25;;;1.32;83.36
75855;BME280;64502;59.976;30.316;2023-02-13T07:35:56;100769.13;;;1.38;82.73
75855;BME280;64502;59.976;30.316;2023-02-13T07:38:22;100763.78;;;1.46;82.50
75855;BME280;64502;59.976;30.316;2023-02-13T07:40:47;100760.25;;;1.48;82.61
75855;BME280;64502;59.976;30.316;2023-02-13T07:43:13;100748.09;;;1.50;82.91
75855;BME280;64502;59.976;30.316;2023-02-13T07:45:38;100754.06;;;1.54;81.56
75855;BME280;64502;59.976;30.316;2023-02-13T07:48:04;100743.69;;;1.54;82.52
75855;BME280;64502;59.976;30.316;2023-02-13T07:50:30;100730.69;;;1.52;82.67
75855;BME280;64502;59.976;30.316;2023-02-13T07:53:00;100731.63;;;1.50;81.59
75855;BME280;64502;59.976;30.316;2023-02-13T07:55:27;100727.38;;;1.47;82.76
75855;BME280;64502;59.976;30.316;2023-02-13T07:57:53;100707.28;;;1.52;82.09
75855;BME280;64502;59.976;30.316;2023-02-13T08:00:19;100729.91;;;1.50;81.99
75855;BME280;64502;59.976;30.316;2023-02-13T08:02:45;100729.00;;;1.50;82.50
75855;BME280;64502;59.976;30.316;2023-02-13T08:05:11;100714.25;;;1.52;82.32
75855;BME280;64502;59.976;30.316;2023-02-13T08:07:36;100705.50;;;1.56;82.89
75855;BME280;64502;59.976;30.316;2023-02-13T08:10:02;100708.88;;;1.60;82.28
75855;BME280;64502;59.976;30.316;2023-02-13T08:12:47;100712.34;;;1.60;81.92
75855;BME280;64502;59.976;30.316;2023-02-13T08:15:14;100716.63;;;1.63;82.37
75855;BME280;64502;59.976;30.316;2023-02-13T08:17:40;100695.72;;;1.67;81.75
75855;BME280;64502;59.976;30.316;2023-02-13T08:20:06;100693.06;;;1.70;81.54
75855;BME280;64502;59.976;30.316;2023-02-13T08:22:36;100689.31;;;1.82;81.48
75855;BME280;64502;59.976;30.316;2023-02-13T08:25:01;100690.81;;;1.92;81.29
75855;BME280;64502;59.976;30.316;2023-02-13T08:27:27;100695.69;;;2.06;80.24
75855;BME280;64502;59.976;30.316;2023-02-13T08:29:55;100694.44;;;2.22;80.76
75855;BME280;64502;59.976;30.316;2023-02-13T08:32:21;100687.13;;;2.38;79.78
75855;BME280;64502;59.976;30.316;2023-02-13T08:34:47;100688.47;;;2.53;79.50
75855;BME280;64502;59.976;30.316;2023-02-13T08:37:12;100695.81;;;2.72;79.06
75855;BME280;64502;59.976;30.316;2023-02-13T08:39:38;100684.16;;;2.86;77.35
75855;BME280;64502;59.976;30.316;2023-02-13T08:42:04;100689.03;;;2.97;77.99
75855;BME280;64502;59.976;30.316;2023-02-13T08:44:29;100677.47;;;3.07;77.47
75855;BME280;64502;59.976;30.316;2023-02-13T08:46:55;100660.81;;;3.13;77.23
75855;BME280;64502;59.976;30.316;2023-02-13T08:49:20;100705.91;;;3.17;76.55
75855;BME280;64502;59.976;30.316;2023-02-13T08:51:48;100650.22;;;3.19;76.03
75855;BME280;64502;59.976;30.316;2023-02-13T08:54:13;100662.44;;;3.17;76.68
75855;BME280;64502;59.976;30.316;2023-02-13T08:56:39;100665.94;;;3.16;76.58
75855;BME280;64502;59.976;30.316;2023-02-13T08:59:04;100664.22;;;3.15;76.21
75855;BME280;64502;59.976;30.316;2023-02-13T09:01:30;100655.38;;;3.21;76.88
75855;BME280;64502;59.976;30.316;2023-02-13T09:03:55;100682.09;;;3.29;76.69
75855;BME280;64502;59.976;30.316;2023-02-13T09:06:21;100665.38;;;3.36;76.35
75855;BME280;64502;59.976;30.316;2023-02-13T09:08:47;100645.91;;;3.48;76.21
75855;BME280;64502;59.976;30.316;2023-02-13T09:11:12;100656.94;;;3.56;76.05
75855;BME280;64502;59.976;30.316;2023-02-13T09:13:38;100657.59;;;3.63;75.47
75855;BME280;64502;59.976;30.316;2023-02-13T09:16:05;100643.38;;;3.73;75.16
75855;BME280;64502;59.976;30.316;2023-02-13T09:18:32;100643.78;;;3.87;74.64
75855;BME280;64502;59.976;30.316;2023-02-13T09:21:05;100632.94;;;4.01;73.87
75855;BME280;64502;59.976;30.316;2023-02-13T09:23:32;100640.22;;;4.18;74.19
75855;BME280;64502;59.976;30.316;2023-02-13T09:26:00;100630.38;;;4.26;72.05
75855;BME280;64502;59.976;30.316;2023-02-13T09:28:26;100632.72;;;4.34;73.57
75855;BME280;64502;59.976;30.316;2023-02-13T09:30:52;100619.44;;;4.40;72.55
75855;BME280;64502;59.976;30.316;2023-02-13T09:33:17;100621.94;;;4.43;72.41
75855;BME280;64502;59.976;30.316;2023-02-13T09:35:42;100633.41;;;4.39;72.45
75855;BME280;64502;59.976;30.316;2023-02-13T09:38:08;100614.53;;;4.31;73.04
75855;BME280;64502;59.976;30.316;2023-02-13T09:40:34;100606.19;;;4.19;73.06
75855;BME280;64502;59.976;30.316;2023-02-13T09:45:55;100605.34;;;3.92;74.23
75855;BME280;64502;59.976;30.316;2023-02-13T09:48:30;100618.72;;;3.83;74.14
75855;BME280;64502;59.976;30.316;2023-02-13T09:50:57;100611.22;;;3.72;73.53
75855;BME280;64502;59.976;30.316;2023-02-13T09:53:25;100617.53;;;3.65;74.21
75855;BME280;64502;59.976;30.316;2023-02-13T09:59:02;100595.16;;;3.58;74.54
75855;BME280;64502;59.976;30.316;2023-02-13T10:01:33;100590.06;;;3.53;75.47
75855;BME280;64502;59.976;30.316;2023-02-13T10:12:12;100592.81;;;3.49;74.76
75855;BME280;64502;59.976;30.316;2023-02-13T10:17:23;100580.97;;;3.39;75.80
75855;BME280;64502;59.976;30.316;2023-02-13T10:19:58;100578.28;;;3.42;75.75
75855;BME280;64502;59.976;30.316;2023-02-13T10:22:48;100594.72;;;3.44;75.55
75855;BME280;64502;59.976;30.316;2023-02-13T10:25:39;100588.53;;;3.46;76.10
75855;BME280;64502;59.976;30.316;2023-02-13T10:28:45;100598.22;;;3.43;75.56
75855;BME280;64502;59.976;30.316;2023-02-13T10:31:32;100578.63;;;3.29;76.16
75855;BME280;64502;59.976;30.316;2023-02-13T10:34:01;100578.69;;;3.28;75.71
75855;BME280;64502;59.976;30.316;2023-02-13T10:36:30;100574.19;;;3.33;76.46
75855;BME280;64502;59.976;30.316;2023-02-13T10:41:34;100575.78;;;3.37;75.54
75855;BME280;64502;59.976;30.316;2023-02-13T11:03:16;100539.41;;;3.61;76.23
75855;BME280;64502;59.976;30.316;2023-02-13T11:05:42;100554.88;;;3.67;74.63
75855;BME280;64502;59.976;30.316;2023-02-13T11:09:00;100549.22;;;3.79;75.11
75855;BME280;64502;59.976;30.316;2023-02-13T11:17:29;100533.69;;;3.76;74.89
75855;BME280;64502;59.976;30.316;2023-02-13T11:19:52;100538.97;;;3.74;75.34
75855;BME280;64502;59.976;30.316;2023-02-13T11:22:36;100540.91;;;3.68;74.92
75855;BME280;64502;59.976;30.316;2023-02-13T11:25:16;100528.16;;;3.59;75.00
75855;BME280;64502;59.976;30.316;2023-02-13T11:27:42;100526.66;;;3.51;75.64
75855;BME280;64502;59.976;30.316;2023-02-13T11:33:26;100520.03;;;3.41;75.65
75855;BME280;64502;59.976;30.316;2023-02-13T11:36:22;100524.59;;;3.34;76.07
75855;BME280;64502;59.976;30.316;2023-02-13T11:39:18;100543.88;;;3.29;76.89
75855;BME280;64502;59.976;30.316;2023-02-13T11:41:45;100535.50;;;3.19;77.19
75855;BME280;64502;59.976;30.316;2023-02-13T11:44:22;100531.94;;;3.22;77.02
75855;BME280;64502;59.976;30.316;2023-02-13T11:46:51;100536.25;;;3.23;76.65
75855;BME280;64502;59.976;30.316;2023-02-13T11:49:22;100531.06;;;3.21;77.17
75855;BME280;64502;59.976;30.316;2023-02-13T11:51:51;100544.13;;;3.21;77.06
75855;BME280;64502;59.976;30.316;2023-02-13T11:54:24;100531.88;;;3.23;76.30
75855;BME280;64502;59.976;30.316;2023-02-13T11:57:38;100536.25;;;3.23;76.54
75855;BME280;64502;59.976;30.316;2023-02-13T11:59:42;100527.53;;;3.24;77.32
75855;BME280;64502;59.976;30.316;2023-02-13T12:02:21;100518.00;;;3.23;75.88
75855;BME280;64502;59.976;30.316;2023-02-13T12:04:52;100519.88;;;3.19;76.92
75855;BME280;64502;59.976;30.316;2023-02-13T12:07:24;100525.97;;;3.18;77.79
75855;BME280;64502;59.976;30.316;2023-02-13T12:09:56;100520.81;;;3.17;77.53
75855;BME280;64502;59.976;30.316;2023-02-13T12:12:36;100539.19;;;3.12;77.24
75855;BME280;64502;59.976;30.316;2023-02-13T12:15:15;100530.53;;;3.11;78.00
75855;BME280;64502;59.976;30.316;2023-02-13T12:17:44;100538.38;;;3.10;77.47
75855;BME280;64502;59.976;30.316;2023-02-13T12:20:15;100527.09;;;3.09;77.61
75855;BME280;64502;59.976;30.316;2023-02-13T12:27:59;100530.75;;;3.04;77.43
75855;BME280;64502;59.976;30.316;2023-02-13T12:30:35;100530.00;;;3.00;77.14
75855;BME280;64502;59.976;30.316;2023-02-13T12:36:18;100533.69;;;2.93;77.46
75855;BME280;64502;59.976;30.316;2023-02-13T12:39:17;100532.72;;;2.96;78.60
75855;BME280;64502;59.976;30.316;2023-02-13T12:47:26;100539.69;;;2.95;78.52
75855;BME280;64502;59.976;30.316;2023-02-13T13:00:57;100539.69;;;2.95;78.49
75855;BME280;64502;59.976;30.316;2023-02-13T13:14:50;100546.16;;;2.82;78.06
75855;BME280;64502;59.976;30.316;2023-02-13T13:17:33;100542.72;;;2.81;79.07
75855;BME280;64502;59.976;30.316;2023-02-13T13:22:56;100537.09;;;2.65;78.81
75855;BME280;64502;59.976;30.316;2023-02-13T13:25:35;100534.69;;;2.58;79.03
75855;BME280;64502;59.976;30.316;2023-02-13T13:28:14;100525.22;;;2.55;78.80
75855;BME280;64502;59.976;30.316;2023-02-13T13:30:42;100529.69;;;2.50;79.99
75855;BME280;64502;59.976;30.316;2023-02-13T13:33:18;100520.28;;;2.46;79.65
75855;BME280;64502;59.976;30.316;2023-02-13T13:38:35;100527.34;;;2.41;79.20
75855;BME280;64502;59.976;30.316;2023-02-13T13:54:47;100532.94;;;2.27;80.21
75855;BME280;64502;59.976;30.316;2023-02-13T13:57:17;100528.69;;;2.23;80.60
75855;BME280;64502;59.976;30.316;2023-02-13T14:07:39;100534.53;;;1.98;80.77
75855;BME280;64502;59.976;30.316;2023-02-13T14:13:00;100536.47;;;1.90;80.47
75855;BME280;64502;59.976;30.316;2023-02-13T14:20:40;100537.50;;;1.85;81.02
75855;BME280;64502;59.976;30.316;2023-02-13T14:23:45;100538.59;;;1.76;81.08
75855;BME280;64502;59.976;30.316;2023-02-13T14:31:27;100557.78;;;1.72;80.90
75855;BME280;64502;59.976;30.316;2023-02-13T14:34:01;100564.69;;;1.73;80.65
75855;BME280;64502;59.976;30.316;2023-02-13T14:36:33;100571.63;;;1.72;81.14
75855;BME280;64502;59.976;30.316;2023-02-13T14:44:36;100562.94;;;1.73;80.60
75855;BME280;64502;59.976;30.316;2023-02-13T14:47:13;100568.03;;;1.76;80.87
75855;BME280;64502;59.976;30.316;2023-02-13T14:49:44;100582.81;;;1.76;80.43
75855;BME280;64502;59.976;30.316;2023-02-13T14:52:18;100580.13;;;1.79;80.69
75855;BME280;64502;59.976;30.316;2023-02-13T14:55:15;100597.47;;;1.80;79.94
75855;BME280;64502;59.976;30.316;2023-02-13T14:57:44;100601.78;;;1.80;80.35
75855;BME280;64502;59.976;30.316;2023-02-13T15:02:58;100600.00;;;1.82;80.11
75855;BME280;64502;59.976;30.316;2023-02-13T15:05:31;100602.63;;;1.82;80.25
75855;BME280;64502;59.976;30.316;2023-02-13T15:08:15;100605.19;;;1.83;79.70
75855;BME280;64502;59.976;30.316;2023-02-13T15:13:16;100613.84;;;1.84;80.07
75855;BME280;64502;59.976;30.316;2023-02-13T15:15:44;100613.00;;;1.83;79.24
75855;BME280;64502;59.976;30.316;2023-02-13T15:18:18;100619.91;;;1.83;79.50
75855;BME280;64502;59.976;30.316;2023-02-13T15:20:45;100621.75;;;1.79;79.43
75855;BME280;64502;59.976;30.316;2023-02-13T15:23:25;100628.78;;;1.75;79.84
75855;BME280;64502;59.976;30.316;2023-02-13T15:26:00;100623.66;;;1.72;79.47
75855;BME280;64502;59.976;30.316;2023-02-13T15:28:27;100622.84;;;1.69;79.33
75855;BME280;64502;59.976;30.316;2023-02-13T15:31:16;100633.31;;;1.67;79.82
75855;BME280;64502;59.976;30.316;2023-02-13T15:33:46;100618.69;;;1.62;79.83
75855;BME280;64502;59.976;30.316;2023-02-13T15:36:39;100629.97;;;1.61;78.98
75855;BME280;64502;59.976;30.316;2023-02-13T15:39:06;100627.44;;;1.58;79.25
75855;BME280;64502;59.976;30.316;2023-02-13T15:41:43;100626.66;;;1.55;79.12
75855;BME280;64502;59.976;30.316;2023-02-13T15:44:16;100637.13;;;1.51;79.35
75855;BME280;64502;59.976;30.316;2023-02-13T15:46:46;100629.34;;;1.49;79.93
75855;BME280;64502;59.976;30.316;2023-02-13T15:49:16;100637.16;;;1.49;80.17
75855;BME280;64502;59.976;30.316;2023-02-13T15:51:43;100632.81;;;1.50;78.93
75855;BME280;64502;59.976;30.316;2023-02-13T15:54:32;100629.41;;;1.48;78.68
75855;BME280;64502;59.976;30.316;2023-02-13T15:57:04;100636.38;;;1.46;79.32
75855;BME280;64502;59.976;30.316;2023-02-13T15:59:36;100637.28;;;1.45;79.08
75855;BME280;64502;59.976;30.316;2023-02-13T16:02:05;100643.34;;;1.44;78.82